createdAt,value
2022-10-01T00:00:56.282Z,100234.19
2022-10-01T00:03:24.505Z,100218.84
2022-10-01T00:06:09.827Z,100222.72
2022-10-01T00:08:38.029Z,100209.63
2022-10-01T00:11:12.431Z,100206.34
2022-10-01T00:13:39.367Z,100208.81
2022-10-01T00:16:11.388Z,100201.66
2022-10-01T00:18:42.576Z,100195.72
2022-10-01T00:21:10.702Z,100198.38
2022-10-01T00:23:37.250Z,100187.13
2022-10-01T00:26:11.802Z,100191.63
2022-10-01T00:28:38.292Z,100184.25
2022-10-01T00:31:07.072Z,100177.09
2022-10-01T00:33:33.751Z,100173.00
2022-10-01T00:36:00.209Z,100170.72
2022-10-01T00:38:26.681Z,100160.88
2022-10-01T00:40:53.399Z,100149.44
2022-10-01T00:43:21.440Z,100148.63
2022-10-01T00:45:49.152Z,100153.53
2022-10-01T00:48:16.632Z,100140.22
2022-10-01T00:50:43.558Z,100141.88
2022-10-01T00:53:14.261Z,100149.41
2022-10-01T00:55:46.155Z,100141.25
2022-10-01T00:58:14.541Z,100142.88
2022-10-01T01:00:42.232Z,100137.16
2022-10-01T01:03:10.119Z,100138.78
2022-10-01T01:05:36.563Z,100126.91
2022-10-01T01:08:03.597Z,100122.84
2022-10-01T01:10:37.030Z,100126.72
2022-10-01T01:13:23.905Z,100134.06
2022-10-01T01:16:10.359Z,100115.63
2022-10-01T01:18:51.466Z,100109.88
2022-10-01T01:21:33.907Z,100106.00
2022-10-01T01:24:04.430Z,100105.16
2022-10-01T01:27:11.012Z,100097.16
2022-10-01T01:30:03.595Z,100093.66
2022-10-01T01:32:46.181Z,100089.75
2022-10-01T01:35:18.864Z,100088.75
2022-10-01T01:37:51.692Z,100082.78
2022-10-01T01:40:19.556Z,100071.97
2022-10-01T01:42:46.670Z,100069.28
2022-10-01T01:45:17.571Z,100064.59
2022-10-01T01:47:45.749Z,100065.38
2022-10-01T01:50:13.765Z,100051.47
2022-10-01T01:52:41.198Z,100047.19
2022-10-01T01:55:09.278Z,100049.44
2022-10-01T01:57:43.665Z,100049.03
2022-10-01T02:00:12.288Z,100049.25
2022-10-01T02:02:40.279Z,100047.03
2022-10-01T02:05:12.787Z,100047.47
2022-10-01T02:07:58.700Z,100037.38
2022-10-01T02:11:05.675Z,100039.06
2022-10-01T02:13:35.119Z,100031.91
2022-10-01T02:16:14.921Z,100021.69
2022-10-01T02:18:50.511Z,100019.19
2022-10-01T02:21:24.151Z,100017.19
2022-10-01T02:24:01.617Z,100012.09
2022-10-01T02:26:29.504Z,100006.09
2022-10-01T02:28:59.679Z,100002.84
2022-10-01T02:31:28.248Z,100009.44
2022-10-01T02:33:55.788Z,100007.94
2022-10-01T02:36:23.072Z,100006.53
2022-10-01T02:38:52.271Z,100005.31
2022-10-01T02:41:23.265Z,99996.53
2022-10-01T02:44:03.287Z,99999.00
2022-10-01T02:46:36.785Z,99998.81
2022-10-01T02:49:04.412Z,100001.31
2022-10-01T02:51:39.794Z,100001.69
2022-10-01T02:54:11.768Z,99991.31
2022-10-01T02:56:57.699Z,99999.69
2022-10-01T02:59:24.152Z,99993.19
2022-10-01T03:01:50.877Z,99986.00
2022-10-01T03:04:19.124Z,99980.50
2022-10-01T03:06:46.299Z,99983.53
2022-10-01T03:09:13.271Z,99978.03
2022-10-01T03:11:39.743Z,99980.88
2022-10-01T03:14:06.625Z,99968.84
2022-10-01T03:16:33.286Z,99970.50
2022-10-01T03:18:59.797Z,99975.97
2022-10-01T03:21:26.824Z,99971.53
2022-10-01T03:23:53.276Z,99977.69
2022-10-01T03:26:19.718Z,99967.03
2022-10-01T03:28:46.185Z,99960.09
2022-10-01T03:31:12.659Z,99957.22
2022-10-01T03:33:39.503Z,99948.44
2022-10-01T03:36:05.958Z,99945.81
2022-10-01T03:38:32.447Z,99939.88
2022-10-01T03:40:58.888Z,99938.44
2022-10-01T03:43:26.999Z,99931.50
2022-10-01T03:45:53.664Z,99936.66
2022-10-01T03:48:21.044Z,99929.25
2022-10-01T03:50:58.324Z,99922.94
2022-10-01T03:53:27.113Z,99918.88
2022-10-01T03:55:54.430Z,99917.66
2022-10-01T03:58:20.968Z,99914.00
2022-10-01T04:00:48.079Z,99912.16
2022-10-01T04:03:15.604Z,99897.25
2022-10-01T04:05:43.079Z,99898.88
2022-10-01T04:08:09.920Z,99894.16
2022-10-01T04:10:36.370Z,99899.75
2022-10-01T04:13:02.873Z,99901.41
2022-10-01T04:15:29.446Z,99901.63
2022-10-01T04:17:56.092Z,99896.09
2022-10-01T04:20:22.723Z,99887.75
2022-10-01T04:22:49.230Z,99887.13
2022-10-01T04:25:15.867Z,99883.66
2022-10-01T04:27:55.120Z,99876.53
2022-10-01T04:30:21.819Z,99879.41
2022-10-01T04:32:48.252Z,99875.38
2022-10-01T04:35:14.731Z,99867.81
2022-10-01T04:37:41.193Z,99855.78
2022-10-01T04:40:08.208Z,99859.44
2022-10-01T04:42:35.385Z,99848.00
2022-10-01T04:45:01.883Z,99860.28
2022-10-01T04:47:28.348Z,99846.41
2022-10-01T04:49:54.820Z,99840.69
2022-10-01T04:52:21.431Z,99843.34
2022-10-01T04:54:47.930Z,99837.44
2022-10-01T04:57:15.371Z,99827.22
2022-10-01T04:59:41.842Z,99826.22
2022-10-01T05:02:08.365Z,99822.72
2022-10-01T05:04:34.919Z,99802.72
2022-10-01T05:07:01.418Z,99807.22
2022-10-01T05:09:27.868Z,99804.81
2022-10-01T05:11:54.323Z,99799.88
2022-10-01T05:14:21.201Z,99788.47
2022-10-01T05:16:50.088Z,99792.19
2022-10-01T05:19:17.120Z,99781.56
2022-10-01T05:21:43.861Z,99775.44
2022-10-01T05:24:10.337Z,99782.34
2022-10-01T05:26:38.855Z,99772.38
2022-10-01T05:29:06.817Z,99768.88
2022-10-01T05:31:34.629Z,99773.59
2022-10-01T05:34:01.368Z,99776.00
2022-10-01T05:36:27.842Z,99777.84
2022-10-01T05:38:54.301Z,99765.00
2022-10-01T05:41:20.757Z,99759.91
2022-10-01T05:43:51.209Z,99764.56
2022-10-01T05:46:18.091Z,99755.44
2022-10-01T05:48:45.280Z,99763.78
2022-10-01T05:51:14.043Z,99762.56
2022-10-01T05:53:40.511Z,99755.03
2022-10-01T05:56:07.479Z,99745.19
2022-10-01T05:58:34.041Z,99755.00
2022-10-01T06:01:00.568Z,99743.78
2022-10-01T06:03:28.799Z,99734.59
2022-10-01T06:05:55.592Z,99738.03
2022-10-01T06:08:22.312Z,99733.78
2022-10-01T06:10:49.228Z,99730.09
2022-10-01T06:13:17.801Z,99731.56
2022-10-01T06:15:45.426Z,99725.19
2022-10-01T06:18:13.569Z,99718.84
2022-10-01T06:20:40.977Z,99712.31
2022-10-01T06:23:12.166Z,99702.75
2022-10-01T06:25:43.448Z,99708.66
2022-10-01T06:28:14.662Z,99705.59
2022-10-01T06:30:41.370Z,99703.53
2022-10-01T06:33:18.722Z,99697.44
2022-10-01T06:35:50.026Z,99696.22
2022-10-01T06:38:19.773Z,99694.59
2022-10-01T06:40:53.511Z,99690.09
2022-10-01T06:43:20.339Z,99676.19
2022-10-01T06:45:46.944Z,99685.81
2022-10-01T06:48:14.814Z,99688.06
2022-10-01T06:50:43.224Z,99679.09
2022-10-01T06:53:09.715Z,99678.03
2022-10-01T06:55:37.581Z,99675.22
2022-10-01T06:58:26.266Z,99676.63
2022-10-01T07:00:58.175Z,99672.94
2022-10-01T07:03:24.708Z,99664.34
2022-10-01T07:05:51.276Z,99665.22
2022-10-01T07:08:17.932Z,99661.50
2022-10-01T07:10:45.526Z,99664.13
2022-10-01T07:13:17.494Z,99657.81
2022-10-01T07:15:45.016Z,99655.78
2022-10-01T07:18:12.317Z,99653.13
2022-10-01T07:20:40.749Z,99654.13
2022-10-01T07:23:11.772Z,99656.56
2022-10-01T07:25:39.318Z,99651.03
2022-10-01T07:28:07.993Z,99646.53
2022-10-01T07:30:35.592Z,99651.00
2022-10-01T07:33:02.060Z,99652.03
2022-10-01T07:35:29.682Z,99648.97
2022-10-01T07:37:56.213Z,99647.91
2022-10-01T07:40:22.819Z,99640.78
2022-10-01T07:42:56.235Z,99638.13
2022-10-01T07:45:23.310Z,99636.13
2022-10-01T07:47:57.510Z,99637.94
2022-10-01T07:50:25.282Z,99629.38
2022-10-01T07:52:53.036Z,99631.94
2022-10-01T07:55:20.297Z,99620.75
2022-10-01T07:57:51.745Z,99622.41
2022-10-01T08:00:19.351Z,99608.69
2022-10-01T08:02:50.741Z,99618.28
2022-10-01T08:05:23.275Z,99603.56
2022-10-01T08:07:50.238Z,99607.03
2022-10-01T08:10:18.339Z,99606.38
2022-10-01T08:12:45.182Z,99604.13
2022-10-01T08:15:16.815Z,99595.72
2022-10-01T08:17:44.025Z,99594.47
2022-10-01T08:20:12.866Z,99598.38
2022-10-01T08:22:42.174Z,99591.59
2022-10-01T08:25:09.418Z,99581.94
2022-10-01T08:27:36.252Z,99588.88
2022-10-01T08:30:02.743Z,99587.63
2022-10-01T08:32:30.903Z,99571.31
2022-10-01T08:34:57.657Z,99573.03
2022-10-01T08:37:27.059Z,99572.97
2022-10-01T08:39:54.595Z,99566.47
2022-10-01T08:42:48.949Z,99569.28
2022-10-01T08:45:32.466Z,99567.81
2022-10-01T08:48:05.433Z,99562.34
2022-10-01T08:50:37.468Z,99556.44
2022-10-01T08:53:07.019Z,99558.00
2022-10-01T08:55:37.224Z,99553.28
2022-10-01T08:58:06.397Z,99550.22
2022-10-01T09:00:40.022Z,99542.44
2022-10-01T09:03:07.020Z,99548.13
2022-10-01T09:05:55.480Z,99531.81
2022-10-01T09:08:24.885Z,99539.72
2022-10-01T09:11:01.616Z,99526.00
2022-10-01T09:13:39.529Z,99524.94
2022-10-01T09:16:25.057Z,99522.69
2022-10-01T09:19:18.514Z,99513.66
2022-10-01T09:21:47.999Z,99506.06
2022-10-01T09:24:16.546Z,99505.53
2022-10-01T09:26:50.263Z,99492.47
2022-10-01T09:29:27.454Z,99485.53
2022-10-01T09:31:55.105Z,99487.53
2022-10-01T09:34:30.764Z,99490.78
2022-10-01T09:36:57.447Z,99487.25
2022-10-01T09:39:33.209Z,99476.75
2022-10-01T09:41:59.719Z,99480.72
2022-10-01T09:44:28.778Z,99480.63
2022-10-01T09:46:55.488Z,99480.75
2022-10-01T09:49:54.650Z,99486.00
2022-10-01T09:52:28.605Z,99471.09
2022-10-01T09:55:33.276Z,99476.13
2022-10-01T09:58:04.239Z,99468.50
2022-10-01T10:00:31.834Z,99463.91
2022-10-01T10:02:58.739Z,99465.66
2022-10-01T10:05:29.816Z,99462.06
2022-10-01T10:07:59.545Z,99460.88
2022-10-01T10:10:28.599Z,99467.97
2022-10-01T10:13:01.577Z,99464.28
2022-10-01T10:15:31.236Z,99478.31
2022-10-01T10:18:06.211Z,99474.25
2022-10-01T10:20:38.123Z,99476.84
2022-10-01T10:23:11.892Z,99485.69
2022-10-01T10:25:38.403Z,99489.75
2022-10-01T10:28:05.115Z,99485.50
2022-10-01T10:30:32.349Z,99494.78
2022-10-01T10:33:04.972Z,99493.25
2022-10-01T10:35:31.748Z,99502.06
2022-10-01T10:37:58.772Z,99509.38
2022-10-01T10:40:29.680Z,99519.88
2022-10-01T10:42:57.620Z,99521.50
2022-10-01T10:45:36.564Z,99521.16
2022-10-01T10:48:05.232Z,99527.22
2022-10-01T10:50:33.978Z,99535.47
2022-10-01T10:53:21.999Z,99546.69
2022-10-01T10:56:05.815Z,99550.00
2022-10-01T10:58:34.846Z,99556.34
2022-10-01T11:01:06.124Z,99580.41
2022-10-01T11:03:33.292Z,99576.47
2022-10-01T11:06:09.877Z,99585.94
2022-10-01T11:08:36.390Z,99591.53
2022-10-01T11:11:12.127Z,99598.16
2022-10-01T11:13:59.804Z,99608.69
2022-10-01T11:17:07.936Z,99612.38
2022-10-01T11:19:45.365Z,99631.84
2022-10-01T11:22:33.667Z,99633.56
2022-10-01T11:25:30.760Z,99650.63
2022-10-01T11:28:03.509Z,99649.81
2022-10-01T11:30:41.851Z,99664.53
2022-10-01T11:33:37.618Z,99663.00
2022-10-01T11:36:07.162Z,99668.47
2022-10-01T11:38:51.068Z,99679.09
2022-10-01T11:41:28.917Z,99675.53
2022-10-01T11:44:07.494Z,99671.19
2022-10-01T11:46:50.268Z,99675.53
2022-10-01T11:49:43.674Z,99692.09
2022-10-01T11:52:23.431Z,99689.28
2022-10-01T11:55:19.191Z,99690.97
2022-10-01T11:58:06.170Z,99697.22
2022-10-01T12:00:34.609Z,99704.50
2022-10-01T12:03:01.730Z,99703.91
2022-10-01T12:05:31.293Z,99699.50
2022-10-01T12:08:09.384Z,99718.19
2022-10-01T12:10:50.466Z,99732.94
2022-10-01T12:13:32.524Z,99724.13
2022-10-01T12:16:16.041Z,99726.00
2022-10-01T12:18:58.113Z,99737.16
2022-10-01T12:21:58.625Z,99737.31
2022-10-01T12:24:36.623Z,99746.44
2022-10-01T12:27:48.180Z,99749.97
2022-10-01T12:30:22.753Z,99758.28
2022-10-01T12:33:17.004Z,99761.81
2022-10-01T12:35:55.554Z,99773.31
2022-10-01T12:38:28.736Z,99776.78
2022-10-01T12:41:13.779Z,99788.91
2022-10-01T12:44:02.827Z,99778.69
2022-10-01T12:46:44.028Z,99791.72
2022-10-01T12:49:35.967Z,99788.38
2022-10-01T12:52:11.755Z,99812.25
2022-10-01T12:54:55.373Z,99808.34
2022-10-01T12:57:34.921Z,99805.94
2022-10-01T13:00:16.657Z,99819.72
2022-10-01T13:02:49.070Z,99809.13
2022-10-01T13:05:48.753Z,99816.53
2022-10-01T13:08:18.051Z,99829.16
2022-10-01T13:11:11.119Z,99831.25
2022-10-01T13:13:38.786Z,99838.25
2022-10-01T13:16:09.196Z,99843.16
2022-10-01T13:18:51.579Z,99850.00
2022-10-01T13:21:53.373Z,99850.31
2022-10-01T13:24:31.774Z,99839.72
2022-10-01T13:27:01.422Z,99834.94
2022-10-01T13:29:42.024Z,99826.78
2022-10-01T13:32:28.666Z,99823.09
2022-10-01T13:34:55.895Z,99822.56
2022-10-01T13:37:34.543Z,99829.56
2022-10-01T13:40:02.183Z,99822.56
2022-10-01T13:42:38.322Z,99826.84
2022-10-01T13:45:21.078Z,99838.72
2022-10-01T13:47:48.392Z,99840.34
2022-10-01T13:50:27.159Z,99839.53
2022-10-01T13:53:06.099Z,99859.09
2022-10-01T13:55:32.868Z,99868.75
2022-10-01T13:58:07.655Z,99875.31
2022-10-01T14:00:34.380Z,99894.63
2022-10-01T14:03:21.556Z,99894.03
2022-10-01T14:05:56.523Z,99910.59
2022-10-01T14:08:29.620Z,99912.75
2022-10-01T14:11:28.987Z,99914.63
2022-10-01T14:14:14.976Z,99923.91
2022-10-01T14:16:43.999Z,99916.75
2022-10-01T14:19:10.524Z,99915.53
2022-10-01T14:21:58.642Z,99924.78
2022-10-01T14:24:33.941Z,99923.47
2022-10-01T14:27:03.135Z,99912.47
2022-10-01T14:29:48.404Z,99900.03
2022-10-01T14:32:33.748Z,99881.91
2022-10-01T14:35:02.805Z,99885.41
2022-10-01T14:37:30.228Z,99875.25
2022-10-01T14:40:18.166Z,99888.97
2022-10-01T14:42:56.213Z,99895.44
2022-10-01T14:45:22.917Z,99895.06
2022-10-01T14:47:59.931Z,99909.81
2022-10-01T14:50:27.302Z,99926.78
2022-10-01T14:52:54.999Z,99933.84
2022-10-01T14:55:22.800Z,99958.13
2022-10-01T14:57:52.070Z,99961.00
2022-10-01T15:00:21.890Z,99971.78
2022-10-01T15:02:51.459Z,99986.31
2022-10-01T15:05:28.766Z,99992.28
2022-10-01T15:07:55.295Z,100000.53
2022-10-01T15:10:26.445Z,100006.75
2022-10-01T15:12:54.123Z,100001.44
2022-10-01T15:15:22.856Z,100006.00
2022-10-01T15:17:50.014Z,99996.16
2022-10-01T15:20:17.858Z,100010.06
2022-10-01T15:22:45.474Z,100002.91
2022-10-01T15:25:19.484Z,100000.84
2022-10-01T15:27:46.610Z,100008.84
2022-10-01T15:30:15.615Z,100012.09
2022-10-01T15:32:42.235Z,100022.41
2022-10-01T15:35:12.558Z,100020.53
2022-10-01T15:37:40.204Z,100028.91
2022-10-01T15:40:20.179Z,100034.78
2022-10-01T15:43:12.747Z,100047.28
2022-10-01T15:45:40.323Z,100042.84
2022-10-01T15:48:26.566Z,100043.31
2022-10-01T15:51:03.992Z,100048.69
2022-10-01T15:53:31.874Z,100050.00
2022-10-01T15:55:59.868Z,100069.78
2022-10-01T15:58:31.350Z,100073.97
2022-10-01T16:01:06.807Z,100077.63
2022-10-01T16:03:57.326Z,100090.31
2022-10-01T16:06:41.270Z,100086.22
2022-10-01T16:09:20.864Z,100102.41
2022-10-01T16:12:03.221Z,100101.81
2022-10-01T16:14:42.704Z,100106.94
2022-10-01T16:17:18.541Z,100116.81
2022-10-01T16:19:46.228Z,100124.59
2022-10-01T16:22:20.210Z,100125.53
2022-10-01T16:24:55.313Z,100124.38
2022-10-01T16:27:28.105Z,100131.34
2022-10-01T16:30:12.067Z,100125.84
2022-10-01T16:32:38.525Z,100138.75
2022-10-01T16:35:24.742Z,100140.31
2022-10-01T16:37:53.446Z,100144.53
2022-10-01T16:40:23.239Z,100146.03
2022-10-01T16:42:50.503Z,100143.47
2022-10-01T16:45:20.076Z,100162.91
2022-10-01T16:47:46.876Z,100163.81
2022-10-01T16:50:15.534Z,100162.78
2022-10-01T16:52:42.196Z,100168.97
2022-10-01T16:55:32.273Z,100172.06
2022-10-01T16:58:01.967Z,100187.00
2022-10-01T17:00:28.970Z,100182.94
2022-10-01T17:02:56.339Z,100188.53
2022-10-01T17:05:31.241Z,100193.47
2022-10-01T17:08:00.789Z,100193.75
2022-10-01T17:10:35.836Z,100194.06
2022-10-01T17:13:03.569Z,100198.28
2022-10-01T17:15:30.745Z,100196.19
2022-10-01T17:17:58.471Z,100196.13
2022-10-01T17:20:28.620Z,100206.66
2022-10-01T17:22:55.814Z,100205.28
2022-10-01T17:25:25.555Z,100210.78
2022-10-01T17:27:53.296Z,100208.69
2022-10-01T17:30:20.011Z,100219.94
2022-10-01T17:32:46.669Z,100219.34
2022-10-01T17:35:14.613Z,100223.94
2022-10-01T17:37:41.946Z,100223.13
2022-10-01T17:40:13.465Z,100231.78
2022-10-01T17:42:40.484Z,100236.94
2022-10-01T17:45:09.830Z,100239.97
2022-10-01T17:47:36.462Z,100247.47
2022-10-01T17:50:05.491Z,100241.56
2022-10-01T17:52:32.683Z,100245.69
2022-10-01T17:54:59.350Z,100256.59
2022-10-01T17:57:25.891Z,100265.44
2022-10-01T17:59:52.355Z,100261.13
2022-10-01T18:02:40.415Z,100273.84
2022-10-01T18:05:08.385Z,100275.53
2022-10-01T18:07:37.104Z,100275.38
2022-10-01T18:10:05.635Z,100283.13
2022-10-01T18:12:33.670Z,100289.50
2022-10-01T18:15:00.728Z,100290.94
2022-10-01T18:17:27.373Z,100296.09
2022-10-01T18:19:54.375Z,100294.69
2022-10-01T18:22:21.239Z,100297.16
2022-10-01T18:24:47.781Z,100302.28
2022-10-01T18:27:14.599Z,100310.06
2022-10-01T18:29:41.358Z,100310.25
2022-10-01T18:32:17.066Z,100322.63
2022-10-01T18:34:54.439Z,100319.78
2022-10-01T18:37:40.540Z,100322.47
2022-10-01T18:40:13.577Z,100333.28
2022-10-01T18:42:46.642Z,100331.22
2022-10-01T18:45:16.819Z,100328.59
2022-10-01T18:48:08.607Z,100332.28
2022-10-01T18:51:15.864Z,100332.50
2022-10-01T18:53:58.428Z,100335.59
2022-10-01T18:56:40.532Z,100340.91
2022-10-01T18:59:22.420Z,100341.72
2022-10-01T19:02:07.493Z,100345.38
2022-10-01T19:05:07.753Z,100351.97
2022-10-01T19:08:05.228Z,100351.75
2022-10-01T19:10:50.774Z,100353.41
2022-10-01T19:13:29.225Z,100359.53
2022-10-01T19:16:01.659Z,100362.16
2022-10-01T19:18:38.315Z,100359.31
2022-10-01T19:21:19.083Z,100362.41
2022-10-01T19:24:09.865Z,100363.84
2022-10-01T19:26:44.828Z,100364.88
2022-10-01T19:29:32.932Z,100355.66
2022-10-01T19:32:04.335Z,100366.31
2022-10-01T19:34:48.018Z,100375.38
2022-10-01T19:37:36.868Z,100373.56
2022-10-01T19:40:12.301Z,100375.78
2022-10-01T19:42:40.642Z,100376.00
2022-10-01T19:45:26.805Z,100377.41
2022-10-01T19:48:41.475Z,100381.13
2022-10-01T19:51:10.685Z,100388.31
2022-10-01T19:53:37.425Z,100391.16
2022-10-01T19:56:04.647Z,100394.44
2022-10-01T19:58:32.240Z,100402.63
2022-10-01T20:01:01.032Z,100406.50
2022-10-01T20:03:40.321Z,100407.34
2022-10-01T20:06:15.061Z,100417.16
2022-10-01T20:08:46.353Z,100419.03
2022-10-01T20:11:19.128Z,100416.78
2022-10-01T20:13:59.053Z,100416.97
2022-10-01T20:16:30.579Z,100423.13
2022-10-01T20:19:23.538Z,100424.16
2022-10-01T20:22:13.083Z,100428.44
2022-10-01T20:25:07.728Z,100429.47
2022-10-01T20:27:49.477Z,100434.78
2022-10-01T20:30:20.491Z,100436.84
2022-10-01T20:33:01.409Z,100442.97
2022-10-01T20:35:35.247Z,100447.91
2022-10-01T20:38:09.503Z,100467.56
2022-10-01T20:40:49.406Z,100459.81
2022-10-01T20:43:36.111Z,100471.88
2022-10-01T20:46:06.777Z,100455.25
2022-10-01T20:48:38.315Z,100448.28
2022-10-01T20:51:32.114Z,100454.44
2022-10-01T20:54:22.920Z,100441.28
2022-10-01T20:57:05.464Z,100450.94
2022-10-01T20:59:43.304Z,100452.34
2022-10-01T21:02:34.159Z,100456.03
2022-10-01T21:05:23.872Z,100462.97
2022-10-01T21:07:53.522Z,100461.09
2022-10-01T21:10:43.260Z,100461.28
2022-10-01T21:13:31.502Z,100468.63
2022-10-01T21:16:04.364Z,100473.94
2022-10-01T21:18:56.762Z,100476.78
2022-10-01T21:21:55.844Z,100468.97
2022-10-01T21:24:53.398Z,100477.38
2022-10-01T21:27:28.025Z,100476.38
2022-10-01T21:30:04.240Z,100481.31
2022-10-01T21:32:49.424Z,100480.88
2022-10-01T21:35:26.148Z,100490.25
2022-10-01T21:38:01.174Z,100491.22
2022-10-01T21:40:53.864Z,100490.56
2022-10-01T21:43:40.507Z,100497.41
2022-10-01T21:46:09.203Z,100501.06
2022-10-01T21:48:47.840Z,100514.09
2022-10-01T21:51:15.571Z,100508.19
2022-10-01T21:54:12.664Z,100511.69
2022-10-01T21:57:01.383Z,100508.97
2022-10-01T21:59:52.839Z,100513.25
2022-10-01T22:02:19.302Z,100521.00
2022-10-01T22:04:49.512Z,100520.38
2022-10-01T22:07:37.643Z,100525.94
2022-10-01T22:10:07.089Z,100534.72
2022-10-01T22:12:36.136Z,100528.19
2022-10-01T22:15:03.872Z,100528.19
2022-10-01T22:17:33.652Z,100530.22
2022-10-01T22:20:05.050Z,100531.09
2022-10-01T22:22:35.644Z,100529.84
2022-10-01T22:25:02.763Z,100536.41
2022-10-01T22:27:44.244Z,100536.06
2022-10-01T22:30:17.800Z,100539.53
2022-10-01T22:33:15.756Z,100549.94
2022-10-01T22:36:23.545Z,100554.22
2022-10-01T22:38:56.061Z,100557.31
2022-10-01T22:41:36.312Z,100550.22
2022-10-01T22:44:10.529Z,100559.47
2022-10-01T22:46:55.580Z,100560.50
2022-10-01T22:49:47.039Z,100563.84
2022-10-01T22:52:34.271Z,100569.56
2022-10-01T22:55:13.750Z,100564.47
2022-10-01T22:57:53.717Z,100565.09
2022-10-01T23:00:21.277Z,100559.44
2022-10-01T23:03:06.617Z,100564.19
2022-10-01T23:06:06.396Z,100562.16
2022-10-01T23:08:45.450Z,100559.25
2022-10-01T23:11:35.130Z,100563.94
2022-10-01T23:14:49.060Z,100567.81
2022-10-01T23:17:29.535Z,100564.75
2022-10-01T23:20:23.949Z,100566.38
2022-10-01T23:23:15.691Z,100569.78
2022-10-01T23:26:08.787Z,100568.94
2022-10-01T23:28:50.553Z,100580.59
2022-10-01T23:31:30.147Z,100577.31
2022-10-01T23:34:20.315Z,100574.66
2022-10-01T23:37:04.820Z,100574.94
2022-10-01T23:39:40.984Z,100586.69
2022-10-01T23:42:28.265Z,100590.78
2022-10-01T23:45:22.816Z,100592.44
2022-10-01T23:48:18.002Z,100595.53
2022-10-01T23:50:59.515Z,100585.91
2022-10-01T23:53:58.058Z,100592.88
2022-10-01T23:56:49.820Z,100605.28
2022-10-01T23:59:32.246Z,100601.41
